Zellwood, Florida
Current Conditions -  °F | °C
As of 2:53 PM on Thursday 30 Oct 2014 (Local Time) from KLEE Reporting Station
Broken Clouds Broken Clouds  
Wind Chill: 79°   Ceiling: 11000
Heat Index: 81°   Visibility: 10mi
Dew Point: 63°   Wind: 6mph
Humidity: 58%   Direction: 300°WNW
Pressure: 29.92"   Gusts: NA
Location:  28.73°N, 81.6°W
Report Text: KLEE 301853Z 30005KT 10SM BKN110 26/17 A2992 RMK AO2 SLP130 T02610172
Loading
Personal Weather Stations






























Interactive Weather Map New forecast layout! Learn more

10-Day Weather Forecast

Advertisements
Track Severe Weather on mobile